Time;durP1;ratioP1;P1;durP2;ratioP2;P2;SDS_P1;SDS_P2;PMS_P1;PMS_P2;Temp;Humidity;BMP_temperature;BMP_pressure;BME280_temperature;BME280_humidity;BME280_pressure;Samples;Min_cycle;Max_cycle;Signal;HPM_P1;HPM_P2
2024/01/28 00:01:39;;;;;;;21.80;8.47;;;-0.70;99.90;;;;;;4913999;29;20051;-94
2024/01/28 00:04:05;;;;;;;20.00;8.20;;;-1.10;99.90;;;;;;4930162;29;20052;-94
2024/01/28 00:06:31;;;;;;;20.37;8.17;;;-1.00;99.90;;;;;;4911181;29;20446;-94
2024/01/28 00:08:57;;;;;;;19.83;8.30;;;0.60;99.90;;;;;;4938024;23;20055;-94
2024/01/28 00:11:25;;;;;;;18.60;7.90;;;-1.00;99.90;;;;;;4947726;23;20055;-94
2024/01/28 00:13:54;;;;;;;18.27;7.93;;;-0.80;99.90;;;;;;4896822;23;20650;-94
2024/01/28 00:16:20;;;;;;;18.40;8.47;;;0.80;99.90;;;;;;4992976;23;20079;-94
2024/01/28 00:18:47;;;;;;;27.50;9.10;;;0.30;99.90;;;;;;4948681;23;20054;-94
2024/01/28 00:21:16;;;;;;;22.43;8.73;;;-1.00;99.90;;;;;;4957873;28;20048;-94
2024/01/28 00:23:47;;;;;;;20.03;8.03;;;0.00;99.90;;;;;;4947645;29;20050;-93
2024/01/28 00:26:19;;;;;;;19.47;8.30;;;-0.90;99.90;;;;;;4942422;29;20051;-95
2024/01/28 00:28:48;;;;;;;21.63;8.03;;;0.20;99.90;;;;;;4941870;29;20130;-95
2024/01/28 00:31:25;;;;;;;19.27;8.30;;;-0.70;99.90;;;;;;4941316;29;20050;-94
2024/01/28 00:33:51;;;;;;;21.80;7.80;;;1.00;99.90;;;;;;4941486;29;20082;-94
2024/01/28 00:36:26;;;;;;;18.47;8.43;;;0.00;99.90;;;;;;4941031;29;20055;-93
2024/01/28 00:39:16;;;;;;;24.57;8.03;;;-0.90;99.90;;;;;;4941366;29;20505;-94
2024/01/28 00:42:01;;;;;;;22.60;8.30;;;-1.20;99.90;;;;;;4864844;29;20108;-94
2024/01/28 00:44:35;;;;;;;21.37;8.80;;;-0.60;99.90;;;;;;4915682;23;20083;-93
2024/01/28 00:47:04;;;;;;;;;;;-1.20;99.90;;;;;;4920114;29;20069;-95
2024/01/28 00:49:32;;;;;;;21.43;8.43;;;0.10;99.90;;;;;;4921771;29;20010;-94
2024/01/28 00:54:37;;;;;;;26.03;8.60;;;-1.20;99.90;;;;;;4950935;23;20047;-94
2024/01/28 00:57:06;;;;;;;18.67;7.97;;;0.00;99.90;;;;;;4943099;23;20060;-94
2024/01/28 00:59:33;;;;;;;21.20;8.37;;;-1.60;99.90;;;;;;5095086;23;20091;-94
2024/01/28 01:01:59;;;;;;;21.07;7.87;;;-1.20;99.90;;;;;;4920358;29;20115;-94
2024/01/28 01:04:46;;;;;;;20.83;8.73;;;-1.50;99.90;;;;;;4920898;29;20048;-93
2024/01/28 01:07:14;;;;;;;23.37;8.93;;;-1.30;99.90;;;;;;4921448;29;20114;-95
2024/01/28 01:09:52;;;;;;;22.40;9.67;;;-0.70;99.90;;;;;;4921139;29;20035;-94
2024/01/28 01:12:22;;;;;;;24.17;8.80;;;-1.40;99.90;;;;;;4921110;29;20395;-94
2024/01/28 01:14:49;;;;;;;20.03;8.20;;;-1.30;99.90;;;;;;4921254;29;20047;-95
2024/01/28 01:20:07;;;;;;;18.80;8.70;;;-0.80;99.90;;;;;;4961502;23;20058;-93
2024/01/28 01:23:02;;;;;;;16.57;7.77;;;-0.90;99.90;;;;;;4938528;23;20416;-94
2024/01/28 01:25:38;;;;;;;22.70;9.43;;;-2.60;99.90;;;;;;4936915;23;20047;-94
2024/01/28 01:28:31;;;;;;;19.80;8.73;;;0.40;99.90;;;;;;4959060;29;20055;-94
2024/01/28 01:31:18;;;;;;;17.00;7.68;;;-0.90;99.90;;;;;;4883822;29;20064;-95
2024/01/28 01:33:50;;;;;;;17.13;7.70;;;-0.70;99.90;;;;;;5206104;23;20397;-91
2024/01/28 01:36:16;;;;;;;18.33;8.40;;;-0.50;99.90;;;;;;4901348;29;20063;-94
2024/01/28 01:39:04;;;;;;;17.27;8.03;;;-1.30;99.90;;;;;;4939333;23;20527;-94
2024/01/28 01:41:32;;;;;;;17.27;8.23;;;-0.20;99.90;;;;;;4881579;29;20055;-93
2024/01/28 01:44:16;;;;;;;19.50;8.37;;;-1.30;99.90;;;;;;4975003;23;20090;-94
2024/01/28 01:46:48;;;;;;;23.17;8.60;;;-0.70;99.90;;;;;;4942449;23;20059;-93
2024/01/28 01:50:17;;;;;;;18.93;8.13;;;-1.00;99.90;;;;;;4937549;29;20054;-93
2024/01/28 01:52:50;;;;;;;20.20;8.27;;;-1.50;99.90;;;;;;4945458;23;20062;-93
2024/01/28 01:59:52;;;;;;;20.93;8.33;;;-0.80;99.90;;;;;;4979880;23;20106;-94
2024/01/28 02:02:24;;;;;;;21.43;7.57;;;-1.60;99.90;;;;;;4955046;23;20361;-92
2024/01/28 02:05:01;;;;;;;18.50;8.27;;;-1.10;99.90;;;;;;4954117;23;20064;-93
2024/01/28 02:07:28;;;;;;;17.53;8.40;;;-1.00;99.90;;;;;;4918988;23;20086;-94
2024/01/28 02:10:44;;;;;;;21.40;8.60;;;0.70;99.90;;;;;;4963431;23;20522;-93
2024/01/28 02:13:10;;;;;;;23.40;8.43;;;-1.40;99.90;;;;;;4940118;29;20051;-93
2024/01/28 02:16:07;;;;;;;16.60;7.37;;;-0.90;99.90;;;;;;4940046;28;20390;-92
2024/01/28 02:18:35;;;;;;;19.20;8.17;;;-0.10;99.90;;;;;;4938573;29;20047;-93
2024/01/28 02:21:01;;;;;;;18.20;8.87;;;-1.40;99.90;;;;;;4939675;29;20122;-93
2024/01/28 02:23:32;;;;;;;18.43;8.87;;;0.00;99.90;;;;;;4939170;29;20050;-93
2024/01/28 02:25:59;;;;;;;21.63;9.27;;;-1.40;99.90;;;;;;4942335;23;20149;-93
2024/01/28 02:29:35;;;;;;;23.23;8.63;;;-1.10;99.90;;;;;;4937045;23;20059;-92
2024/01/28 02:32:33;;;;;;;20.33;8.27;;;-1.80;99.90;;;;;;4956090;29;20051;-94
2024/01/28 02:36:08;;;;;;;21.83;8.67;;;-1.00;99.90;;;;;;4909136;23;20055;-93
2024/01/28 02:38:34;;;;;;;17.88;8.40;;;0.40;99.90;;;;;;4941619;23;20056;-93
2024/01/28 02:41:02;;;;;;;24.30;8.63;;;-0.60;99.90;;;;;;5117251;23;20130;-94
2024/01/28 02:43:31;;;;;;;21.57;9.10;;;-0.70;99.90;;;;;;4937360;29;20058;-93
2024/01/28 02:45:57;;;;;;;21.60;9.07;;;-1.00;99.90;;;;;;4944946;23;20475;-94
2024/01/28 02:48:24;;;;;;;20.00;8.97;;;-1.40;99.90;;;;;;4916135;29;20060;-93
2024/01/28 02:50:52;;;;;;;18.97;8.80;;;-1.30;99.90;;;;;;4914446;29;20048;-91
2024/01/28 02:53:24;;;;;;;18.33;8.87;;;1.00;99.90;;;;;;4900995;29;20117;-94
2024/01/28 02:55:59;;;;;;;20.27;8.73;;;-1.10;99.90;;;;;;4900618;29;20080;-93
2024/01/28 02:58:46;;;;;;;21.70;9.33;;;1.00;99.90;;;;;;4901744;29;20052;-94
2024/01/28 03:01:18;;;;;;;25.27;10.17;;;-0.70;99.90;;;;;;4891607;29;20067;-93
2024/01/28 03:03:46;;;;;;;20.67;8.70;;;-0.90;99.90;;;;;;4882090;29;20096;-94
2024/01/28 03:06:15;;;;;;;24.60;9.80;;;-0.40;99.90;;;;;;4897796;29;20057;-93
2024/01/28 03:08:47;;;;;;;21.83;9.97;;;-0.60;99.90;;;;;;4899180;29;20055;-92
2024/01/28 03:13:38;;;;;;;23.80;9.27;;;-0.60;99.90;;;;;;4942809;23;20067;-94
2024/01/28 03:20:01;;;;;;;23.17;8.93;;;-0.40;99.90;;;;;;4999237;23;20202;-93
2024/01/28 03:22:51;;;;;;;23.43;9.73;;;2.00;99.90;;;;;;4942238;29;20502;-93
2024/01/28 03:25:43;;;;;;;22.20;9.63;;;0.70;99.90;;;;;;4987199;23;20059;-93
2024/01/28 03:28:10;;;;;;;23.00;9.77;;;-0.70;99.90;;;;;;4955393;23;20064;-93
2024/01/28 03:30:39;;;;;;;21.97;10.60;;;-0.60;99.90;;;;;;4940517;23;20397;-93
2024/01/28 03:33:05;;;;;;;21.20;8.73;;;-0.90;99.90;;;;;;4941906;29;20054;-94
2024/01/28 03:35:37;;;;;;;21.33;9.83;;;-0.60;99.90;;;;;;4941667;29;20051;-94
2024/01/28 03:38:05;;;;;;;21.30;9.27;;;-0.60;99.90;;;;;;4941852;29;20130;-95
2024/01/28 03:40:31;;;;;;;24.17;10.17;;;-0.40;99.90;;;;;;4941714;29;20515;-93
2024/01/28 03:42:56;;;;;;;25.07;9.40;;;0.30;99.90;;;;;;4942585;29;20043;-94
2024/01/28 03:45:22;;;;;;;19.90;9.17;;;1.30;99.90;;;;;;4956281;29;20051;-94
2024/01/28 03:47:50;;;;;;;20.37;10.17;;;0.50;99.90;;;;;;4950323;23;20082;-93
2024/01/28 03:50:21;;;;;;;19.87;8.83;;;1.70;99.90;;;;;;4948322;23;20051;-94
2024/01/28 03:56:55;;;;;;;20.53;9.00;;;1.20;99.90;;;;;;4918166;29;20063;-94
2024/01/28 03:59:27;;;;;;;28.13;10.10;;;-0.10;99.90;;;;;;4903058;29;20044;-94
2024/01/28 04:01:53;;;;;;;22.07;9.17;;;1.00;99.90;;;;;;4904484;29;20107;-94
2024/01/28 04:11:13;;;;;;;24.00;8.90;;;-0.50;99.90;;;;;;4882765;29;20048;-94
2024/01/28 04:13:39;;;;;;;23.20;9.30;;;0.10;99.90;;;;;;4904089;29;20052;-93
2024/01/28 04:16:08;;;;;;;19.63;9.57;;;-0.50;99.90;;;;;;4905292;29;20044;-93
2024/01/28 04:18:34;;;;;;;19.70;8.77;;;-0.60;99.90;;;;;;4914545;23;20103;-94
2024/01/28 04:23:57;;;;;;;22.23;9.37;;;-0.20;99.90;;;;;;4950783;23;20056;-94
2024/01/28 04:26:31;;;;;;;22.23;8.93;;;0.00;99.90;;;;;;4941525;23;20051;-94
2024/01/28 04:29:18;;;;;;;;;;;-0.30;99.90;;;;;;4928214;23;20159;-93
2024/01/28 04:31:47;;;;;;;19.27;8.47;;;-1.00;99.90;;;;;;4923348;29;19974;-94
2024/01/28 04:34:13;;;;;;;18.23;8.47;;;0.70;99.90;;;;;;4922309;29;20039;-93
2024/01/28 04:36:38;;;;;;;23.03;9.17;;;0.60;99.90;;;;;;4921752;29;20059;-95
2024/01/28 04:39:07;;;;;;;19.97;8.50;;;-1.00;99.90;;;;;;4921342;29;20099;-93
2024/01/28 04:41:35;;;;;;;21.67;9.30;;;-1.80;99.90;;;;;;4922337;29;20043;-94
2024/01/28 04:44:01;;;;;;;19.13;8.87;;;-0.30;99.90;;;;;;4948514;23;20047;-93
2024/01/28 04:46:57;;;;;;;19.50;8.03;;;1.00;99.90;;;;;;4947136;23;20051;-94
2024/01/28 04:49:32;;;;;;;20.17;8.47;;;-0.80;99.90;;;;;;4944462;23;20051;-93
2024/01/28 04:51:58;;;;;;;22.70;8.93;;;-0.90;99.90;;;;;;4900976;29;20056;-93
2024/01/28 04:54:30;;;;;;;22.57;7.87;;;-1.30;99.90;;;;;;4935152;23;20051;-94
2024/01/28 04:56:57;;;;;;;23.77;8.80;;;-0.90;99.90;;;;;;4936626;23;20482;-94
2024/01/28 04:59:24;;;;;;;21.33;8.80;;;-0.90;99.90;;;;;;4939911;29;20062;-93
2024/01/28 05:01:50;;;;;;;21.63;8.47;;;-1.10;99.90;;;;;;4932616;29;20056;-93
2024/01/28 05:04:21;;;;;;;23.50;8.30;;;-0.10;99.90;;;;;;4931068;29;20051;-93
2024/01/28 05:07:09;;;;;;;22.67;8.70;;;-0.10;99.90;;;;;;4919889;29;20087;-94
2024/01/28 05:09:47;;;;;;;20.67;8.73;;;-1.30;99.90;;;;;;4919714;29;20488;-93
2024/01/28 05:12:13;;;;;;;20.83;9.63;;;-0.30;99.90;;;;;;4936084;29;20052;-94
2024/01/28 05:15:06;;;;;;;21.80;9.03;;;-0.40;99.90;;;;;;4921660;29;20070;-94
2024/01/28 05:17:50;;;;;;;22.40;9.07;;;-1.40;99.90;;;;;;4922574;29;20128;-93
2024/01/28 05:20:16;;;;;;;23.52;9.55;;;0.90;99.90;;;;;;4936540;29;20138;-94
2024/01/28 05:22:59;;;;;;;22.37;9.40;;;-0.80;99.90;;;;;;4921192;29;20078;-94
2024/01/28 05:25:26;;;;;;;18.90;9.03;;;0.40;99.90;;;;;;4946608;29;20094;-94
2024/01/28 05:28:15;;;;;;;19.93;8.70;;;-0.80;99.90;;;;;;4948674;29;20043;-95
2024/01/28 05:31:01;;;;;;;23.93;9.00;;;-0.30;99.90;;;;;;4865224;29;20057;-95
2024/01/28 05:33:41;;;;;;;20.42;9.35;;;-1.00;99.90;;;;;;4884424;23;20165;-94
2024/01/28 05:36:14;;;;;;;23.73;9.40;;;-0.70;99.90;;;;;;4896735;23;20048;-93
2024/01/28 05:38:44;;;;;;;23.07;9.87;;;-0.80;99.90;;;;;;4945274;23;20134;-94
2024/01/28 05:41:14;;;;;;;18.70;8.70;;;-0.60;99.90;;;;;;4913600;23;20134;-94
2024/01/28 05:47:22;;;;;;;24.10;9.20;;;-1.30;99.90;;;;;;4939099;29;20578;-94
2024/01/28 05:52:16;;;;;;;20.20;9.40;;;-0.70;99.90;;;;;;4951410;23;20057;-94
2024/01/28 05:55:16;;;;;;;29.97;9.53;;;0.20;99.90;;;;;;4959809;23;20423;-94
2024/01/28 06:00:16;;;;;;;21.87;8.47;;;-0.80;99.90;;;;;;5003102;23;20090;-93
2024/01/28 06:03:10;;;;;;;21.97;8.27;;;-0.90;99.90;;;;;;5123828;23;20134;-94
2024/01/28 06:05:36;;;;;;;21.23;8.90;;;-0.90;99.90;;;;;;4957529;28;20058;-94
2024/01/28 06:08:20;;;;;;;21.90;9.00;;;-1.20;99.90;;;;;;4957880;28;20042;-93
2024/01/28 06:10:49;;;;;;;;;;;-1.80;99.90;;;;;;4954415;23;20067;-94
2024/01/28 06:13:15;;;;;;;20.77;8.87;;;-1.50;99.90;;;;;;4925632;23;19927;-94
2024/01/28 06:15:45;;;;;;;20.03;8.57;;;-1.20;99.90;;;;;;4919869;29;20543;-95
2024/01/28 06:18:26;;;;;;;23.67;9.10;;;-0.40;99.90;;;;;;4920463;29;20107;-94
2024/01/28 06:21:01;;;;;;;23.87;8.30;;;-0.80;99.90;;;;;;4920800;29;20500;-94
2024/01/28 06:23:29;;;;;;;20.03;8.23;;;-0.20;99.90;;;;;;4921676;29;20051;-94
2024/01/28 06:25:55;;;;;;;22.60;7.93;;;-0.80;99.90;;;;;;4922666;29;20090;-94
2024/01/28 06:28:31;;;;;;;26.57;8.00;;;0.60;99.90;;;;;;4931822;23;20059;-94
2024/01/28 06:30:59;;;;;;;17.33;7.87;;;-0.90;99.90;;;;;;4940817;29;20079;-94
2024/01/28 06:33:28;;;;;;;20.93;8.17;;;-1.20;99.90;;;;;;5189274;23;20419;-94
2024/01/28 06:39:59;;;;;;;19.67;8.37;;;-1.70;99.90;;;;;;4934257;29;20090;-94
2024/01/28 06:42:51;;;;;;;16.10;7.83;;;-0.80;99.90;;;;;;4928414;23;20630;-94
2024/01/28 06:45:19;;;;;;;16.87;7.93;;;0.40;99.90;;;;;;4939379;29;20306;-94
2024/01/28 06:47:46;;;;;;;18.87;6.87;;;0.70;99.90;;;;;;4944110;29;20043;-95
2024/01/28 06:50:33;;;;;;;21.77;7.63;;;-1.00;99.90;;;;;;4943411;29;20043;-94
2024/01/28 06:55:38;;;;;;;18.03;9.07;;;-0.80;99.90;;;;;;4993390;23;20098;-93
2024/01/28 06:58:09;;;;;;;19.47;9.70;;;-0.50;99.90;;;;;;4923613;29;20040;-94
2024/01/28 07:00:38;;;;;;;23.37;9.77;;;0.50;99.90;;;;;;4924697;29;20496;-93
2024/01/28 07:03:04;;;;;;;21.13;10.37;;;-0.70;99.90;;;;;;4942253;23;20083;-93
2024/01/28 07:05:31;;;;;;;20.53;10.07;;;-0.90;99.90;;;;;;4956552;23;20055;-93
2024/01/28 07:08:01;;;;;;;18.17;9.53;;;-0.20;99.90;;;;;;4946748;23;20079;-94
2024/01/28 07:10:54;;;;;;;21.43;9.20;;;-0.90;99.90;;;;;;4922219;29;20048;-93
2024/01/28 07:13:37;;;;;;;24.63;10.03;;;-1.00;99.90;;;;;;4924264;29;20079;-93
2024/01/28 07:16:03;;;;;;;21.80;9.65;;;-1.50;99.90;;;;;;4946335;23;20055;-92
2024/01/28 07:18:49;;;;;;;17.67;9.37;;;-1.10;99.90;;;;;;4937188;29;20038;-93
2024/01/28 07:21:18;;;;;;;21.17;9.70;;;0.50;99.90;;;;;;4944730;29;20431;-90
2024/01/28 07:23:50;;;;;;;22.10;9.70;;;-0.80;99.90;;;;;;4940420;29;20503;-86
2024/01/28 07:26:28;;;;;;;22.10;9.43;;;-1.50;99.90;;;;;;4939328;29;20219;-86
2024/01/28 07:29:03;;;;;;;19.43;8.80;;;-1.70;99.90;;;;;;4939569;29;20039;-87
2024/01/28 07:31:32;;;;;;;20.47;8.83;;;-1.60;99.90;;;;;;4939094;29;20058;-89
2024/01/28 07:33:58;;;;;;;20.20;9.30;;;-1.40;99.90;;;;;;4939297;23;20055;-87
2024/01/28 07:36:29;;;;;;;17.67;8.77;;;-1.30;99.90;;;;;;4920391;29;20051;-88
2024/01/28 07:39:00;;;;;;;19.20;9.50;;;-1.30;99.90;;;;;;4919819;29;20048;-87
2024/01/28 07:41:26;;;;;;;19.23;9.33;;;-1.30;99.90;;;;;;4921315;29;20051;-87
2024/01/28 07:43:58;;;;;;;23.90;8.40;;;0.50;99.90;;;;;;4920980;29;20055;-88
2024/01/28 07:46:24;;;;;;;21.33;9.00;;;-1.50;99.90;;;;;;4919667;29;20052;-87
2024/01/28 07:48:49;;;;;;;19.47;8.10;;;0.40;99.90;;;;;;4920325;29;20047;-86
2024/01/28 07:51:28;;;;;;;20.97;8.83;;;-1.30;99.90;;;;;;4920396;29;20224;-88
2024/01/28 07:53:59;;;;;;;17.77;7.70;;;-0.70;99.90;;;;;;4919969;29;20086;-86
2024/01/28 07:56:25;;;;;;;22.23;8.97;;;0.80;99.90;;;;;;4920419;29;20045;-89
2024/01/28 07:58:54;;;;;;;21.67;8.30;;;-1.10;99.90;;;;;;4927154;29;20058;-88
2024/01/28 08:01:30;;;;;;;19.00;7.67;;;-0.80;99.90;;;;;;4929056;28;20134;-88
2024/01/28 08:03:59;;;;;;;19.60;7.40;;;0.50;99.90;;;;;;4939000;29;20043;-88
2024/01/28 08:06:27;;;;;;;15.57;6.67;;;-1.00;99.90;;;;;;4939159;29;20054;-87
2024/01/28 08:08:53;;;;;;;16.33;6.57;;;-0.90;99.90;;;;;;4938889;29;20047;-88
2024/01/28 08:11:27;;;;;;;14.53;6.73;;;1.20;99.90;;;;;;4957283;29;20045;-91
2024/01/28 08:13:56;;;;;;;16.77;6.40;;;-0.50;99.90;;;;;;4946189;29;20059;-89
2024/01/28 08:16:22;;;;;;;15.03;6.67;;;1.50;99.90;;;;;;4939933;29;20051;-94
2024/01/28 08:18:48;;;;;;;18.20;6.77;;;-0.70;99.90;;;;;;4939377;29;20109;-86
2024/01/28 08:23:48;;;;;;;14.60;6.70;;;-0.10;99.90;;;;;;4944491;23;20059;-87
2024/01/28 08:26:15;;;;;;;16.03;6.13;;;0.70;99.90;;;;;;4916100;29;20071;-89
2024/01/28 08:28:47;;;;;;;15.57;6.27;;;-0.30;99.90;;;;;;4895981;29;20232;-89
2024/01/28 08:31:18;;;;;;;13.73;6.20;;;0.50;99.90;;;;;;4881061;29;20564;-89
2024/01/28 08:33:47;;;;;;;15.20;6.53;;;1.50;99.90;;;;;;4911627;23;20047;-88
2024/01/28 08:36:29;;;;;;;19.57;6.53;;;0.20;99.90;;;;;;4907446;29;20043;-88
2024/01/28 08:39:09;;;;;;;12.93;5.57;;;-0.10;99.90;;;;;;4916129;29;20055;-89
2024/01/28 08:41:47;;;;;;;15.83;5.80;;;0.30;99.90;;;;;;4908110;29;20062;-87
2024/01/28 08:44:27;;;;;;;15.00;5.57;;;-0.10;99.90;;;;;;4907007;29;20074;-87
2024/01/28 08:46:56;;;;;;;12.07;5.10;;;1.30;99.90;;;;;;4909703;29;20055;-87
2024/01/28 08:49:28;;;;;;;13.40;5.70;;;1.60;99.90;;;;;;4922001;29;20044;-86
2024/01/28 08:52:00;;;;;;;16.80;6.40;;;0.00;99.90;;;;;;4908404;29;20044;-86
2024/01/28 08:54:38;;;;;;;11.37;5.20;;;0.20;99.90;;;;;;4905796;29;20115;-86
2024/01/28 08:57:07;;;;;;;12.87;5.33;;;0.40;99.90;;;;;;4909686;29;20051;-86
2024/01/28 08:59:41;;;;;;;13.97;5.47;;;0.80;99.90;;;;;;4921616;29;20066;-86
2024/01/28 09:02:07;;;;;;;13.47;5.23;;;0.30;99.90;;;;;;4904629;29;20084;-86
2024/01/28 09:04:36;;;;;;;12.13;5.50;;;0.90;99.90;;;;;;4920951;29;20080;-86
2024/01/28 09:07:16;;;;;;;13.23;5.13;;;1.00;99.90;;;;;;4909246;29;20377;-86
2024/01/28 09:10:00;;;;;;;12.47;4.97;;;2.50;99.90;;;;;;4913169;29;20055;-87
2024/01/28 09:12:38;;;;;;;16.33;5.50;;;0.20;99.90;;;;;;4943039;23;20043;-83
2024/01/28 09:15:09;;;;;;;14.90;4.73;;;3.40;99.90;;;;;;4927780;29;20462;-84
2024/01/28 09:17:55;;;;;;;18.30;5.40;;;2.50;99.90;;;;;;4939058;29;20043;-87
2024/01/28 09:23:25;;;;;;;11.60;4.80;;;0.40;99.90;;;;;;4911034;29;20145;-86
2024/01/28 09:25:57;;;;;;;13.60;5.23;;;1.40;99.90;;;;;;4936411;29;20078;-87
2024/01/28 09:28:23;;;;;;;11.77;5.00;;;3.70;99.90;;;;;;4936074;29;20075;-87
2024/01/28 09:30:48;;;;;;;13.97;5.20;;;1.50;99.90;;;;;;4937561;29;20448;-86
2024/01/28 09:33:17;;;;;;;11.97;4.27;;;3.80;99.90;;;;;;4936463;29;20051;-86
2024/01/28 09:36:23;;;;;;;12.67;4.87;;;1.70;99.90;;;;;;4937421;29;20043;-87
2024/01/28 09:39:00;;;;;;;13.73;4.40;;;2.40;99.90;;;;;;4953788;29;20047;-86
2024/01/28 09:41:43;;;;;;;15.73;4.30;;;1.20;99.90;;;;;;4937218;29;20055;-87
2024/01/28 09:44:09;;;;;;;11.07;4.50;;;1.90;99.90;;;;;;4937209;29;20495;-87
2024/01/28 09:46:38;;;;;;;14.90;4.43;;;2.60;99.90;;;;;;4936784;29;20420;-88
2024/01/28 09:49:20;;;;;;;10.63;4.63;;;2.00;99.90;;;;;;4924945;29;20131;-88
2024/01/28 09:52:04;;;;;;;11.30;4.77;;;2.70;99.90;;;;;;4924579;29;20039;-87
2024/01/28 09:58:09;;;;;;;12.97;4.70;;;3.00;99.90;;;;;;4940748;29;19922;-87
2024/01/28 10:00:44;;;;;;;12.90;4.03;;;1.70;99.90;;;;;;4927101;29;20137;-87
2024/01/28 10:03:10;;;;;;;12.83;4.00;;;4.00;99.90;;;;;;4925293;29;20043;-87
2024/01/28 10:05:35;;;;;;;12.27;4.47;;;2.60;99.90;;;;;;4924147;29;20558;-87
2024/01/28 10:08:13;;;;;;;10.50;3.90;;;2.60;99.90;;;;;;4922966;29;20161;-89
2024/01/28 10:13:07;;;;;;;11.77;4.07;;;3.00;99.90;;;;;;4958959;23;20049;-87
2024/01/28 10:18:16;;;;;;;13.50;4.00;;;3.20;99.90;;;;;;4960784;23;21051;-88
2024/01/28 10:20:48;;;;;;;11.90;3.80;;;3.90;99.90;;;;;;4911461;29;20091;-88
2024/01/28 10:26:56;;;;;;;9.57;3.78;;;3.40;99.90;;;;;;4910462;29;20508;-89
2024/01/28 10:29:27;;;;;;;11.35;3.47;;;3.40;99.90;;;;;;4916374;29;20123;-89
2024/01/28 10:31:53;;;;;;;10.17;3.50;;;3.60;99.90;;;;;;4909616;29;20094;-90
2024/01/28 10:34:24;;;;;;;11.40;3.60;;;5.00;99.90;;;;;;4921586;23;20061;-89
2024/01/28 10:37:00;;;;;;;12.07;4.30;;;5.20;99.90;;;;;;4948107;23;20066;-89
2024/01/28 10:39:32;;;;;;;11.60;3.87;;;4.90;99.90;;;;;;4908474;29;20491;-89
2024/01/28 10:42:05;;;;;;;12.20;3.30;;;4.20;99.90;;;;;;4916774;29;20055;-92
2024/01/28 10:44:45;;;;;;;10.10;3.20;;;4.30;99.90;;;;;;4914897;29;20126;-89
2024/01/28 10:47:12;;;;;;;10.17;3.60;;;4.50;99.90;;;;;;4913197;29;20126;-89
2024/01/28 10:49:51;;;;;;;9.90;3.40;;;4.40;99.90;;;;;;4925484;29;20124;-89
2024/01/28 10:52:21;;;;;;;11.00;3.60;;;5.10;99.90;;;;;;4917120;29;20055;-90
2024/01/28 10:55:04;;;;;;;10.63;3.83;;;5.00;99.90;;;;;;4928683;29;20048;-89
2024/01/28 10:57:39;;;;;;;12.93;3.80;;;4.40;99.90;;;;;;4934650;23;20150;-88
2024/01/28 11:00:16;;;;;;;8.47;3.23;;;4.70;99.90;;;;;;4919089;29;20086;-90
2024/01/28 11:02:42;;;;;;;11.93;3.63;;;5.20;99.90;;;;;;4918820;29;20050;-91
2024/01/28 11:05:14;;;;;;;9.77;3.27;;;7.30;99.90;;;;;;4912501;29;20083;-89
2024/01/28 11:08:48;;;;;;;9.37;3.57;;;7.20;99.90;;;;;;4935157;29;20043;-89
2024/01/28 11:11:20;;;;;;;11.50;3.23;;;6.90;99.90;;;;;;4916555;29;20381;-90
2024/01/28 11:16:37;;;;;;;11.43;3.10;;;5.90;99.90;;;;;;4940211;23;20051;-89
2024/01/28 11:19:14;;;;;;;8.30;3.00;;;7.80;99.90;;;;;;4929260;29;20047;-90
2024/01/28 11:22:16;;;;;;;9.83;3.43;;;5.40;99.90;;;;;;4939475;29;20076;-90
2024/01/28 11:24:52;;;;;;;10.20;3.27;;;5.40;99.90;;;;;;4910474;29;20051;-90
2024/01/28 11:27:23;;;;;;;8.33;2.87;;;6.20;99.90;;;;;;4905185;29;20079;-90
2024/01/28 11:30:14;;;;;;;11.57;3.20;;;6.70;99.90;;;;;;4926884;29;20058;-90
2024/01/28 11:33:33;;;;;;;9.10;3.10;;;8.40;99.90;;;;;;4924159;29;20040;-90
2024/01/28 11:36:02;;;;;;;10.20;3.10;;;6.70;99.90;;;;;;4888386;29;20492;-90
2024/01/28 11:38:39;;;;;;;10.87;3.20;;;8.40;99.90;;;;;;4918058;29;20098;-91
2024/01/28 11:41:10;;;;;;;11.83;2.90;;;6.80;99.90;;;;;;4930727;23;20059;-91
2024/01/28 11:43:42;;;;;;;10.73;2.90;;;7.20;99.90;;;;;;4933223;29;20051;-91
2024/01/28 11:48:42;;;;;;;10.73;3.20;;;7.40;99.90;;;;;;4932668;23;20095;-91
2024/01/28 11:51:11;;;;;;;9.40;2.80;;;6.30;99.90;;;;;;4917300;29;20076;-88
2024/01/28 11:53:42;;;;;;;9.80;2.67;;;7.50;99.90;;;;;;4916696;29;20072;-85
2024/01/28 11:56:10;;;;;;;8.73;2.90;;;8.30;99.90;;;;;;4911471;29;20047;-87
2024/01/28 11:58:46;;;;;;;10.90;3.23;;;7.80;99.90;;;;;;4912723;29;20044;-88
2024/01/28 12:01:12;;;;;;;9.37;2.43;;;7.90;99.90;;;;;;4905031;29;20393;-87
2024/01/28 12:03:39;;;;;;;8.40;2.93;;;8.40;99.90;;;;;;4900718;29;20539;-86
2024/01/28 12:06:05;;;;;;;8.43;2.70;;;9.30;99.90;;;;;;4903110;29;20047;-87
2024/01/28 12:08:43;;;;;;;10.53;2.73;;;8.00;99.90;;;;;;4903966;29;20052;-87
2024/01/28 12:11:14;;;;;;;8.50;2.60;;;8.50;99.90;;;;;;4909235;29;20067;-87
2024/01/28 12:13:49;;;;;;;8.87;2.87;;;8.00;99.90;;;;;;4904238;29;20056;-87
2024/01/28 12:16:20;;;;;;;9.60;2.60;;;9.60;99.90;;;;;;4902730;29;20512;-88
2024/01/28 12:18:46;;;;;;;9.93;2.77;;;10.00;99.90;;;;;;4901356;29;20096;-89
2024/01/28 12:21:30;;;;;;;7.83;2.63;;;8.20;99.90;;;;;;4907050;29;20056;-88
2024/01/28 12:24:09;;;;;;;9.17;2.60;;;8.60;99.90;;;;;;4902551;29;20044;-89
2024/01/28 12:26:35;;;;;;;8.63;2.50;;;10.00;99.90;;;;;;4904351;29;20072;-89
2024/01/28 12:29:02;;;;;;;9.57;2.57;;;10.40;99.90;;;;;;4901376;29;20071;-90
2024/01/28 12:31:28;;;;;;;9.43;3.00;;;8.60;99.90;;;;;;4905300;29;20112;-89
2024/01/28 12:34:14;;;;;;;10.18;2.60;;;8.70;99.90;;;;;;4906737;29;20047;-88
2024/01/28 12:36:48;;;;;;;7.10;2.33;;;10.00;99.90;;;;;;4906240;29;20051;-93
2024/01/28 12:39:26;;;;;;;8.20;2.77;;;7.80;99.90;;;;;;4905296;29;20041;-92
2024/01/28 12:42:03;;;;;;;10.97;2.77;;;9.50;99.90;;;;;;4908202;29;20625;-92
2024/01/28 12:44:29;;;;;;;9.23;2.70;;;8.90;99.90;;;;;;4907498;29;20045;-87
2024/01/28 12:46:55;;;;;;;9.17;2.77;;;10.30;99.90;;;;;;4904166;29;20060;-85
2024/01/28 12:49:45;;;;;;;9.30;2.63;;;8.30;99.90;;;;;;4905421;29;20060;-87
2024/01/28 12:52:30;;;;;;;8.83;2.50;;;9.20;99.90;;;;;;4909329;29;20056;-87
2024/01/28 12:54:55;;;;;;;8.60;2.70;;;9.20;99.90;;;;;;4915150;29;20084;-90
2024/01/28 12:57:21;;;;;;;8.75;2.50;;;10.60;99.90;;;;;;4915951;29;20086;-86
2024/01/28 12:59:47;;;;;;;9.35;2.60;;;10.40;99.90;;;;;;4916300;29;20081;-86
2024/01/28 13:02:13;;;;;;;8.65;2.80;;;10.60;99.90;;;;;;4915355;29;20873;-87
2024/01/28 13:04:48;;;;;;;8.32;2.90;;;10.10;99.90;;;;;;4915886;29;20059;-87
2024/01/28 13:07:14;;;;;;;8.20;2.47;;;9.10;99.90;;;;;;4915350;29;20492;-87
2024/01/28 13:09:39;;;;;;;10.10;3.05;;;9.40;99.90;;;;;;4915477;29;20059;-87
2024/01/28 13:12:06;;;;;;;10.13;2.43;;;11.30;99.90;;;;;;4915753;29;20441;-87
2024/01/28 13:14:31;;;;;;;8.57;2.42;;;9.60;99.90;;;;;;4914616;29;20056;-87
2024/01/28 13:16:57;;;;;;;9.40;2.70;;;9.60;99.90;;;;;;4915021;29;20040;-87
2024/01/28 13:19:23;;;;;;;9.52;2.88;;;9.80;99.90;;;;;;4915843;29;20048;-87
2024/01/28 13:21:48;;;;;;;8.70;2.70;;;9.80;99.90;;;;;;4915799;29;20048;-87
2024/01/28 13:24:14;;;;;;;7.95;2.53;;;10.70;99.90;;;;;;4914649;29;20040;-87
2024/01/28 13:26:41;;;;;;;9.13;2.77;;;10.90;99.90;;;;;;4901968;29;20047;-87
2024/01/28 13:29:06;;;;;;;8.67;2.83;;;10.10;99.90;;;;;;4915679;29;20484;-87
2024/01/28 13:31:32;;;;;;;9.23;2.57;;;10.10;99.90;;;;;;4915359;29;20504;-87
2024/01/28 13:33:58;;;;;;;10.73;2.37;;;9.60;99.90;;;;;;4916136;29;20103;-87
2024/01/28 13:36:23;;;;;;;8.97;2.67;;;10.30;99.90;;;;;;4909436;29;20476;-87
2024/01/28 13:38:49;;;;;;;8.98;2.80;;;9.60;99.90;;;;;;4895607;29;20052;-87
2024/01/28 13:41:15;;;;;;;8.43;2.72;;;9.60;99.90;;;;;;4896373;29;20136;-87
2024/01/28 13:43:41;;;;;;;7.90;2.53;;;10.90;99.90;;;;;;4896276;29;20090;-87
2024/01/28 13:46:07;;;;;;;9.05;2.47;;;9.60;99.90;;;;;;4895619;29;20080;-87
2024/01/28 13:48:32;;;;;;;8.48;2.72;;;9.60;99.90;;;;;;4937202;23;20114;-87
2024/01/28 13:50:58;;;;;;;8.02;2.90;;;10.80;99.90;;;;;;4937151;29;20055;-88
2024/01/28 13:53:24;;;;;;;8.45;2.50;;;9.60;99.90;;;;;;4936617;29;20550;-87
2024/01/28 13:55:49;;;;;;;8.55;2.78;;;9.50;99.90;;;;;;4936975;29;20046;-87
2024/01/28 13:58:15;;;;;;;8.30;2.92;;;9.50;99.90;;;;;;4936469;29;20447;-87
2024/01/28 14:00:40;;;;;;;9.52;3.00;;;9.60;99.90;;;;;;4937605;29;20134;-87
2024/01/28 14:03:06;;;;;;;9.57;3.10;;;9.50;99.90;;;;;;4936891;29;20043;-87
2024/01/28 14:05:34;;;;;;;8.75;2.72;;;9.50;99.90;;;;;;4936488;29;20098;-87
2024/01/28 14:08:00;;;;;;;8.52;2.90;;;9.50;99.90;;;;;;4937277;29;20051;-86
2024/01/28 14:10:25;;;;;;;10.02;2.80;;;9.50;99.90;;;;;;4937524;29;20127;-87
2024/01/28 14:12:51;;;;;;;8.43;2.90;;;10.10;99.90;;;;;;4936619;29;20063;-87
2024/01/28 14:15:16;;;;;;;8.43;2.63;;;9.40;99.90;;;;;;4937352;29;20492;-87
2024/01/28 14:17:42;;;;;;;9.20;2.88;;;9.40;99.90;;;;;;4937215;29;20050;-87
2024/01/28 14:20:08;;;;;;;8.10;2.63;;;10.70;99.90;;;;;;4936552;29;20133;-87
2024/01/28 14:22:34;;;;;;;10.55;3.10;;;9.30;99.90;;;;;;4928753;29;20375;-87
2024/01/28 14:25:00;;;;;;;9.55;2.67;;;9.30;99.90;;;;;;4937019;29;20047;-87